createdAt,value
2022-11-10T00:00:57.311Z,12.42
2022-11-10T00:03:24.737Z,12.57
2022-11-10T00:05:51.283Z,12.54
2022-11-10T00:08:17.747Z,12.71
2022-11-10T00:10:59.379Z,12.54
2022-11-10T00:13:27.088Z,12.83
2022-11-10T00:16:12.858Z,12.43
2022-11-10T00:18:39.335Z,12.43
2022-11-10T00:21:07.695Z,12.63
2022-11-10T00:23:34.424Z,12.76
2022-11-10T00:26:01.041Z,12.48
2022-11-10T00:28:30.784Z,12.34
2022-11-10T00:30:57.677Z,12.67
2022-11-10T00:33:27.168Z,12.54
2022-11-10T00:35:53.584Z,12.51
2022-11-10T00:38:20.044Z,12.57
2022-11-10T00:40:47.831Z,12.46
2022-11-10T00:43:14.279Z,12.46
2022-11-10T00:45:43.185Z,12.49
2022-11-10T00:48:09.713Z,12.63
2022-11-10T00:50:36.144Z,12.54
2022-11-10T00:53:02.757Z,12.44
2022-11-10T00:55:29.189Z,12.07
2022-11-10T00:57:55.696Z,12.14
2022-11-10T01:00:22.283Z,12.48
2022-11-10T01:02:48.780Z,12.23
2022-11-10T01:05:15.259Z,12.27
2022-11-10T01:07:41.694Z,12.17
2022-11-10T01:10:08.380Z,12.17
2022-11-10T01:12:34.924Z,12.27
2022-11-10T01:15:01.371Z,12.41
2022-11-10T01:17:29.818Z,12.31
2022-11-10T01:19:56.444Z,12.45
2022-11-10T01:22:23.003Z,12.40
2022-11-10T01:24:49.464Z,12.68
2022-11-10T01:27:15.908Z,12.83
2022-11-10T01:29:42.396Z,12.91
2022-11-10T01:32:08.836Z,12.88
2022-11-10T01:34:35.290Z,12.59
2022-11-10T01:37:01.740Z,12.56
2022-11-10T01:39:28.249Z,12.98
2022-11-10T01:41:54.744Z,12.65
2022-11-10T01:44:24.663Z,13.11
2022-11-10T01:46:51.298Z,13.17
2022-11-10T01:49:20.532Z,12.66
2022-11-10T01:51:49.992Z,12.91
2022-11-10T01:54:22.780Z,13.01
2022-11-10T01:56:52.041Z,13.26
2022-11-10T01:59:23.132Z,13.24
2022-11-10T02:01:50.565Z,12.91
2022-11-10T02:04:19.652Z,13.06
2022-11-10T02:06:47.315Z,13.12
2022-11-10T02:09:14.141Z,12.96
2022-11-10T02:11:42.326Z,13.07
2022-11-10T02:14:09.072Z,12.95
2022-11-10T02:16:35.986Z,13.22
2022-11-10T02:19:23.778Z,13.01
2022-11-10T02:21:50.229Z,12.99
2022-11-10T02:24:17.105Z,12.93
2022-11-10T02:26:47.252Z,12.32
2022-11-10T02:29:14.123Z,12.57
2022-11-10T02:31:40.586Z,12.55
2022-11-10T02:34:07.096Z,12.32
2022-11-10T02:36:33.747Z,12.41
2022-11-10T02:39:00.277Z,12.55
2022-11-10T02:41:26.793Z,12.24
2022-11-10T02:43:54.477Z,12.15
2022-11-10T02:46:20.922Z,12.56
2022-11-10T02:48:47.473Z,11.99
2022-11-10T02:51:14.204Z,12.23
2022-11-10T02:53:40.669Z,12.39
2022-11-10T02:56:07.380Z,12.08
2022-11-10T02:58:33.868Z,12.03
2022-11-10T03:01:00.360Z,12.33
2022-11-10T03:03:27.341Z,12.14
2022-11-10T03:05:53.821Z,12.05
2022-11-10T03:08:20.282Z,11.77
2022-11-10T03:10:46.746Z,11.77
2022-11-10T03:13:13.212Z,11.61
2022-11-10T03:15:39.736Z,11.92
2022-11-10T03:18:06.235Z,11.92
2022-11-10T03:20:32.716Z,12.02
2022-11-10T03:23:04.018Z,11.65
2022-11-10T03:25:30.823Z,12.11
2022-11-10T03:27:57.258Z,11.77
2022-11-10T03:30:23.838Z,11.40
2022-11-10T03:32:50.266Z,12.02
2022-11-10T03:35:16.766Z,11.89
2022-11-10T03:37:43.254Z,11.78
2022-11-10T03:40:10.295Z,11.79
2022-11-10T03:42:36.743Z,11.41
2022-11-10T03:45:03.340Z,11.55
2022-11-10T03:47:29.783Z,11.52
2022-11-10T03:49:56.214Z,11.84
2022-11-10T03:52:22.675Z,11.72
2022-11-10T03:54:49.137Z,11.79
2022-11-10T03:57:15.997Z,11.73
2022-11-10T03:59:42.485Z,11.61
2022-11-10T04:02:09.081Z,11.43
2022-11-10T04:04:54.373Z,11.69
2022-11-10T04:07:39.482Z,11.58
2022-11-10T04:10:06.603Z,11.43
2022-11-10T04:12:51.776Z,11.83
2022-11-10T04:15:36.770Z,11.57
2022-11-10T04:18:21.592Z,11.56
2022-11-10T04:20:48.796Z,11.60
2022-11-10T04:23:27.981Z,11.76
2022-11-10T04:26:17.596Z,11.55
2022-11-10T04:28:45.629Z,11.52
2022-11-10T04:31:13.009Z,11.40
2022-11-10T04:33:40.159Z,11.26
2022-11-10T04:36:07.437Z,11.39
2022-11-10T04:38:34.019Z,11.39
2022-11-10T04:41:00.889Z,11.51
2022-11-10T04:43:27.783Z,11.12
2022-11-10T04:45:54.550Z,11.00
2022-11-10T04:48:21.518Z,11.30
2022-11-10T04:50:47.999Z,11.34
2022-11-10T04:53:14.681Z,11.17
2022-11-10T04:55:42.872Z,11.40
2022-11-10T04:58:09.511Z,11.41
2022-11-10T05:00:36.741Z,11.27
2022-11-10T05:03:05.379Z,11.34
2022-11-10T05:05:31.883Z,11.56
2022-11-10T05:07:58.861Z,11.43
2022-11-10T05:10:25.912Z,11.17
2022-11-10T05:12:58.771Z,11.57
2022-11-10T05:15:25.606Z,11.27
2022-11-10T05:17:53.535Z,11.26
2022-11-10T05:20:21.671Z,11.32
2022-11-10T05:23:09.622Z,11.34
2022-11-10T05:25:38.501Z,11.36
2022-11-10T05:28:06.482Z,11.29
2022-11-10T05:30:33.929Z,11.38
2022-11-10T05:33:00.365Z,11.19
2022-11-10T05:35:26.806Z,11.10
2022-11-10T05:37:53.268Z,11.35
2022-11-10T05:40:19.745Z,11.31
2022-11-10T05:42:47.588Z,11.29
2022-11-10T05:45:15.316Z,11.52
2022-11-10T05:47:41.950Z,11.45
2022-11-10T05:50:09.017Z,11.44
2022-11-10T05:52:35.684Z,11.35
2022-11-10T05:55:02.137Z,11.28
2022-11-10T05:57:28.621Z,11.31
2022-11-10T05:59:55.099Z,11.54
2022-11-10T06:02:21.541Z,11.19
2022-11-10T06:04:48.000Z,11.29
2022-11-10T06:07:14.812Z,11.56
2022-11-10T06:09:41.516Z,11.61
2022-11-10T06:12:08.141Z,11.42
2022-11-10T06:14:34.652Z,11.40
2022-11-10T06:17:01.111Z,11.29
2022-11-10T06:19:27.584Z,11.34
2022-11-10T06:22:00.472Z,11.46
2022-11-10T06:24:28.976Z,11.37
2022-11-10T06:26:55.409Z,11.41
2022-11-10T06:29:26.656Z,11.81
2022-11-10T06:31:53.468Z,11.74
2022-11-10T06:34:19.930Z,11.52
2022-11-10T06:36:46.356Z,11.44
2022-11-10T06:39:12.874Z,11.52
2022-11-10T06:41:39.298Z,11.74
2022-11-10T06:44:06.474Z,11.64
2022-11-10T06:46:35.869Z,11.65
2022-11-10T06:49:04.945Z,11.79
2022-11-10T06:51:31.363Z,11.94
2022-11-10T06:53:57.898Z,11.77
2022-11-10T06:56:24.410Z,11.62
2022-11-10T06:58:50.851Z,11.76
2022-11-10T07:01:22.118Z,11.73
2022-11-10T07:04:17.541Z,11.75
2022-11-10T07:06:35.490Z,11.79
2022-11-10T07:09:01.981Z,11.88
2022-11-10T07:11:28.415Z,11.77
2022-11-10T07:13:54.873Z,11.77
2022-11-10T07:16:24.482Z,11.70
2022-11-10T07:18:51.813Z,11.69
2022-11-10T07:21:18.311Z,11.99
2022-11-10T07:23:46.855Z,11.68
2022-11-10T07:26:13.465Z,11.61
2022-11-10T07:28:39.917Z,11.82
2022-11-10T07:31:06.361Z,11.93
2022-11-10T07:33:32.803Z,12.01
2022-11-10T07:36:03.926Z,12.13
2022-11-10T07:38:30.402Z,12.15
2022-11-10T07:40:57.000Z,11.76
2022-11-10T07:43:25.229Z,12.07
2022-11-10T07:45:52.912Z,12.12
2022-11-10T07:48:19.877Z,11.98
2022-11-10T07:50:46.706Z,11.87
2022-11-10T07:53:15.393Z,12.56
2022-11-10T07:55:44.236Z,12.11
2022-11-10T07:58:12.224Z,12.34
2022-11-10T08:00:38.959Z,12.08
2022-11-10T08:03:07.405Z,12.41
2022-11-10T08:05:34.343Z,12.28
2022-11-10T08:08:00.847Z,12.17
2022-11-10T08:10:28.391Z,12.63
2022-11-10T08:13:02.266Z,12.50
2022-11-10T08:15:29.687Z,12.63
2022-11-10T08:18:08.717Z,12.58
2022-11-10T08:20:35.315Z,12.52
2022-11-10T08:23:05.048Z,12.50
2022-11-10T08:28:06.994Z,12.70
2022-11-10T08:30:35.303Z,12.31
2022-11-10T08:33:03.044Z,12.73
2022-11-10T08:35:31.065Z,12.38
2022-11-10T08:37:57.917Z,12.63
2022-11-10T08:40:27.701Z,12.76
2022-11-10T08:43:01.624Z,12.89
2022-11-10T08:45:28.579Z,13.15
2022-11-10T08:48:03.120Z,12.95
2022-11-10T08:50:29.952Z,13.06
2022-11-10T08:52:57.291Z,12.96
2022-11-10T08:55:23.898Z,13.21
2022-11-10T08:57:50.368Z,12.98
2022-11-10T09:00:17.495Z,13.25
2022-11-10T09:02:44.039Z,13.05
2022-11-10T09:05:10.671Z,12.92
2022-11-10T09:07:45.107Z,12.84
2022-11-10T09:10:13.172Z,13.03
2022-11-10T09:12:40.998Z,13.23
2022-11-10T09:15:08.372Z,12.95
2022-11-10T09:17:35.051Z,13.20
2022-11-10T09:20:01.758Z,13.38
2022-11-10T09:22:28.390Z,12.87
2022-11-10T09:24:54.846Z,13.17
2022-11-10T09:27:21.433Z,13.28
2022-11-10T09:29:47.884Z,13.72
2022-11-10T09:32:14.307Z,13.73
2022-11-10T09:34:40.767Z,13.47
2022-11-10T09:37:07.218Z,13.69
2022-11-10T09:39:33.658Z,13.74
2022-11-10T09:42:00.091Z,13.67
2022-11-10T09:44:31.074Z,13.34
2022-11-10T09:47:19.023Z,13.41
2022-11-10T09:50:00.996Z,13.53
2022-11-10T09:52:29.989Z,13.78
2022-11-10T09:55:03.702Z,13.31
2022-11-10T09:57:30.424Z,13.42
2022-11-10T09:59:57.033Z,13.70
2022-11-10T10:02:38.616Z,13.53
2022-11-10T10:05:47.402Z,13.74
2022-11-10T10:08:22.985Z,13.77
2022-11-10T10:11:07.253Z,13.98
2022-11-10T10:13:51.283Z,14.17
2022-11-10T10:16:49.843Z,13.61
2022-11-10T10:19:58.490Z,14.23
2022-11-10T10:22:34.952Z,14.14
2022-11-10T10:25:04.186Z,13.92
2022-11-10T10:27:31.776Z,14.59
2022-11-10T10:29:58.385Z,14.27
2022-11-10T10:32:26.680Z,14.23
2022-11-10T10:34:53.157Z,14.81
2022-11-10T10:37:46.473Z,14.46
2022-11-10T10:40:31.059Z,14.65
2022-11-10T10:42:59.718Z,14.72
2022-11-10T10:45:29.074Z,14.58
2022-11-10T10:47:57.422Z,14.52
2022-11-10T10:50:35.552Z,14.63
2022-11-10T10:53:11.075Z,14.60
2022-11-10T10:55:38.138Z,14.85
2022-11-10T10:58:18.735Z,14.75
2022-11-10T11:00:47.808Z,14.46
2022-11-10T11:03:48.737Z,14.61
2022-11-10T11:06:15.536Z,14.56
2022-11-10T11:09:04.306Z,14.45
2022-11-10T11:11:33.396Z,14.91
2022-11-10T11:14:19.984Z,14.69
2022-11-10T11:17:04.437Z,14.47
2022-11-10T11:19:33.749Z,14.93
2022-11-10T11:22:12.373Z,15.17
2022-11-10T11:25:06.807Z,14.65
2022-11-10T11:28:03.741Z,14.37
2022-11-10T11:30:53.408Z,14.64
2022-11-10T11:33:42.040Z,14.66
2022-11-10T11:36:33.154Z,14.67
2022-11-10T11:39:21.964Z,15.23
2022-11-10T11:42:20.061Z,15.40
2022-11-10T11:45:14.297Z,14.80
2022-11-10T11:48:19.799Z,15.19
2022-11-10T11:50:51.902Z,15.28
2022-11-10T11:53:46.397Z,15.58
2022-11-10T11:56:27.068Z,14.93
2022-11-10T11:59:32.567Z,15.05
2022-11-10T12:02:23.680Z,15.38
2022-11-10T12:05:04.061Z,15.38
2022-11-10T12:07:56.073Z,15.81
2022-11-10T12:10:52.835Z,15.38
2022-11-10T12:13:47.520Z,15.30
2022-11-10T12:16:23.456Z,15.06
2022-11-10T12:19:01.372Z,15.29
2022-11-10T12:21:32.850Z,14.86
2022-11-10T12:24:37.438Z,15.05
2022-11-10T12:27:15.494Z,14.97
2022-11-10T12:30:03.242Z,15.38
2022-11-10T12:32:46.862Z,15.37
2022-11-10T12:35:20.286Z,14.90
2022-11-10T12:37:53.719Z,14.93
2022-11-10T12:40:27.791Z,14.75
2022-11-10T12:43:00.458Z,14.82
2022-11-10T12:45:32.548Z,15.24
2022-11-10T12:47:59.882Z,14.77
2022-11-10T12:50:42.395Z,14.97
2022-11-10T12:53:31.306Z,15.51
2022-11-10T12:56:11.748Z,14.85
2022-11-10T12:58:38.238Z,15.23
2022-11-10T13:01:14.697Z,14.91
2022-11-10T13:03:54.278Z,15.35
2022-11-10T13:06:50.639Z,14.61
2022-11-10T13:09:32.091Z,15.14
2022-11-10T13:12:10.749Z,15.17
2022-11-10T13:14:38.575Z,15.19
2022-11-10T13:17:05.629Z,15.03
2022-11-10T13:19:38.906Z,15.11
2022-11-10T13:22:10.220Z,14.90
2022-11-10T13:24:38.514Z,15.25
2022-11-10T13:27:13.952Z,15.21
2022-11-10T13:29:43.470Z,15.02
2022-11-10T13:32:25.479Z,15.11
2022-11-10T13:34:52.647Z,14.75
2022-11-10T13:37:46.919Z,15.08
2022-11-10T13:40:25.686Z,15.04
2022-11-10T13:42:58.276Z,14.89
2022-11-10T13:45:43.288Z,14.75
2022-11-10T13:48:12.840Z,15.29
2022-11-10T13:51:01.341Z,15.29
2022-11-10T13:53:49.666Z,14.78
2022-11-10T13:56:41.608Z,15.41
2022-11-10T13:59:27.381Z,15.16
2022-11-10T14:01:53.930Z,15.31
2022-11-10T14:04:35.702Z,15.25
2022-11-10T14:07:03.763Z,15.26
2022-11-10T14:09:41.451Z,15.29
2022-11-10T14:12:28.792Z,15.17
2022-11-10T14:15:00.767Z,15.15
2022-11-10T14:17:29.867Z,15.22
2022-11-10T14:19:56.421Z,15.37
2022-11-10T14:22:27.816Z,15.37
2022-11-10T14:24:57.607Z,15.21
2022-11-10T14:27:27.307Z,14.89
2022-11-10T14:30:30.448Z,14.94
2022-11-10T14:33:14.388Z,15.50
2022-11-10T14:36:13.452Z,15.54
2022-11-10T14:38:43.804Z,15.62
2022-11-10T14:41:16.792Z,15.49
2022-11-10T14:43:43.257Z,15.55
2022-11-10T14:46:15.303Z,15.40
2022-11-10T14:48:41.841Z,15.34
2022-11-10T14:51:17.448Z,15.36
2022-11-10T14:53:48.472Z,15.21
2022-11-10T14:56:19.750Z,15.14
2022-11-10T14:58:47.269Z,15.19
2022-11-10T15:01:34.652Z,15.47
2022-11-10T15:04:03.324Z,15.24
2022-11-10T15:06:30.142Z,15.14
2022-11-10T15:08:57.044Z,15.29
2022-11-10T15:11:41.437Z,15.19
2022-11-10T15:14:44.733Z,15.11
2022-11-10T15:17:20.400Z,15.33
2022-11-10T15:19:46.994Z,15.21
2022-11-10T15:22:18.177Z,15.15
2022-11-10T15:24:46.930Z,15.06
2022-11-10T15:27:23.473Z,15.12
2022-11-10T15:29:50.708Z,15.57
2022-11-10T15:32:21.127Z,14.94
2022-11-10T15:34:48.833Z,14.78
2022-11-10T15:37:31.100Z,15.28
2022-11-10T15:40:46.696Z,15.14
2022-11-10T15:43:26.769Z,15.43
2022-11-10T15:46:15.014Z,15.37
2022-11-10T15:48:49.269Z,15.43
2022-11-10T15:51:22.841Z,15.40
2022-11-10T15:53:54.304Z,15.41
2022-11-10T15:56:22.675Z,15.05
2022-11-10T15:58:51.048Z,15.11
2022-11-10T16:01:18.007Z,15.25
2022-11-10T16:03:45.855Z,14.94
2022-11-10T16:06:16.482Z,15.38
2022-11-10T16:08:43.270Z,15.36
2022-11-10T16:11:17.440Z,15.42
2022-11-10T16:13:44.060Z,15.24
2022-11-10T16:16:15.378Z,15.44
2022-11-10T16:18:43.932Z,15.07
2022-11-10T16:21:19.753Z,15.16
2022-11-10T16:23:46.781Z,15.32
2022-11-10T16:26:14.818Z,14.94
2022-11-10T16:28:44.118Z,15.20
2022-11-10T16:31:11.539Z,15.49
2022-11-10T16:33:38.161Z,15.80
2022-11-10T16:36:04.927Z,15.44
2022-11-10T16:38:32.144Z,15.37
2022-11-10T16:41:03.694Z,15.06
2022-11-10T16:43:31.411Z,15.60
2022-11-10T16:46:00.587Z,15.36
2022-11-10T16:48:31.967Z,15.48
2022-11-10T16:51:00.102Z,15.25
2022-11-10T16:53:31.283Z,15.61
2022-11-10T16:55:58.328Z,15.46
2022-11-10T16:58:26.039Z,15.67
2022-11-10T17:00:54.198Z,15.32
2022-11-10T17:03:27.316Z,15.51
2022-11-10T17:05:53.839Z,15.58
2022-11-10T17:08:23.207Z,15.50
2022-11-10T17:10:50.939Z,15.56
2022-11-10T17:13:18.018Z,15.34
2022-11-10T17:15:45.467Z,15.36
2022-11-10T17:18:17.309Z,15.18
2022-11-10T17:20:47.025Z,15.29
2022-11-10T17:23:14.677Z,15.31
2022-11-10T17:25:41.652Z,15.22
2022-11-10T17:28:16.556Z,15.74
2022-11-10T17:30:43.194Z,15.69
2022-11-10T17:33:10.174Z,15.82
2022-11-10T17:35:45.514Z,15.72
2022-11-10T17:38:13.389Z,15.56
2022-11-10T17:40:42.131Z,15.51
2022-11-10T17:43:12.964Z,15.16
2022-11-10T17:45:39.841Z,15.76
2022-11-10T17:48:07.136Z,15.52
2022-11-10T17:50:35.792Z,15.52
2022-11-10T17:53:23.332Z,15.64
2022-11-10T17:55:50.252Z,15.36
2022-11-10T17:58:17.611Z,15.63
2022-11-10T18:00:47.473Z,15.60
2022-11-10T18:03:19.663Z,15.74
2022-11-10T18:05:54.476Z,15.39
2022-11-10T18:08:20.959Z,15.96
2022-11-10T18:14:56.379Z,15.58
2022-11-10T18:17:25.432Z,15.47
2022-11-10T18:19:52.661Z,15.57
2022-11-10T18:22:22.757Z,16.06
2022-11-10T18:24:49.678Z,15.77
2022-11-10T18:27:16.879Z,15.50
2022-11-10T18:29:43.915Z,15.37
2022-11-10T18:32:30.713Z,15.37
2022-11-10T18:35:00.359Z,15.79
2022-11-10T18:37:30.447Z,15.26
2022-11-10T18:39:57.277Z,15.27
2022-11-10T18:42:35.439Z,15.57
2022-11-10T18:45:03.647Z,15.61
2022-11-10T18:47:30.851Z,15.31
2022-11-10T18:49:58.440Z,15.74
2022-11-10T18:52:26.425Z,15.48
2022-11-10T18:54:54.627Z,15.50
2022-11-10T18:57:22.715Z,15.18
2022-11-10T18:59:51.045Z,15.49
2022-11-10T19:02:21.296Z,15.36
2022-11-10T19:04:53.399Z,15.44
2022-11-10T19:07:24.994Z,15.36
2022-11-10T19:09:52.631Z,15.56
2022-11-10T19:12:25.434Z,15.56
2022-11-10T19:14:58.607Z,15.42
2022-11-10T19:17:25.559Z,15.34
2022-11-10T19:19:56.454Z,15.41
2022-11-10T19:22:23.934Z,15.64
2022-11-10T19:25:07.484Z,15.42
2022-11-10T19:27:35.521Z,15.49
2022-11-10T19:30:02.167Z,15.64
2022-11-10T19:32:29.920Z,15.36
2022-11-10T19:34:59.275Z,15.30
2022-11-10T19:37:28.674Z,15.60
2022-11-10T19:39:58.998Z,15.63
2022-11-10T19:42:26.080Z,15.63
2022-11-10T19:44:54.413Z,15.50
2022-11-10T19:47:21.868Z,15.45
2022-11-10T19:49:50.630Z,15.22
2022-11-10T19:52:27.620Z,15.33
2022-11-10T19:54:54.469Z,15.44
2022-11-10T19:57:22.805Z,15.28
2022-11-10T19:59:49.964Z,15.33
2022-11-10T20:02:19.493Z,15.59
2022-11-10T20:05:06.095Z,15.95
2022-11-10T20:07:51.588Z,15.48
2022-11-10T20:10:19.192Z,15.52
2022-11-10T20:12:47.654Z,15.33
2022-11-10T20:15:16.081Z,15.31
2022-11-10T20:17:44.204Z,15.57
2022-11-10T20:20:12.409Z,15.39
2022-11-10T20:22:40.661Z,15.11
2022-11-10T20:27:35.819Z,15.45
2022-11-10T20:30:03.388Z,15.13
2022-11-10T20:32:31.061Z,15.48
2022-11-10T20:34:58.032Z,15.39
2022-11-10T20:37:24.873Z,15.49
2022-11-10T20:39:53.379Z,15.48
2022-11-10T20:42:20.565Z,15.37
2022-11-10T20:44:47.080Z,15.53
2022-11-10T20:47:13.606Z,15.21
2022-11-10T20:49:40.100Z,15.26
2022-11-10T20:52:06.563Z,15.31
2022-11-10T20:54:33.362Z,15.23
2022-11-10T20:56:59.824Z,15.75
2022-11-10T20:59:26.251Z,15.48
2022-11-10T21:01:52.923Z,15.49
2022-11-10T21:04:19.452Z,15.78
2022-11-10T21:06:45.993Z,15.39
2022-11-10T21:09:12.722Z,15.37
2022-11-10T21:11:57.767Z,15.45
2022-11-10T21:14:24.220Z,15.61
2022-11-10T21:16:50.671Z,15.57
2022-11-10T21:19:17.218Z,15.77
2022-11-10T21:21:43.735Z,15.68
2022-11-10T21:24:10.717Z,15.70
2022-11-10T21:26:37.791Z,15.49
2022-11-10T21:29:05.145Z,15.43
2022-11-10T21:31:31.703Z,15.38
2022-11-10T21:33:59.145Z,15.25
2022-11-10T21:36:29.881Z,15.38
2022-11-10T21:38:57.103Z,15.65
2022-11-10T21:41:23.610Z,15.58
2022-11-10T21:43:50.098Z,15.57
2022-11-10T21:46:16.748Z,15.75
2022-11-10T21:48:43.293Z,15.69
2022-11-10T21:51:11.091Z,15.52
2022-11-10T21:53:39.693Z,15.72
2022-11-10T21:56:07.732Z,15.54
2022-11-10T21:58:34.887Z,15.37
2022-11-10T22:01:02.336Z,15.36
2022-11-10T22:03:29.999Z,15.29
2022-11-10T22:06:03.048Z,15.30
2022-11-10T22:08:29.558Z,15.59
2022-11-10T22:11:14.829Z,15.39
2022-11-10T22:13:59.890Z,15.22
2022-11-10T22:16:47.550Z,15.60
2022-11-10T22:19:17.283Z,15.03
2022-11-10T22:21:44.345Z,15.46
2022-11-10T22:24:23.373Z,15.56
2022-11-10T22:26:50.675Z,15.04
2022-11-10T22:29:17.605Z,15.43
2022-11-10T22:31:44.487Z,15.25
2022-11-10T22:34:11.158Z,15.10
2022-11-10T22:36:37.864Z,15.64
2022-11-10T22:39:04.771Z,15.24
2022-11-10T22:41:49.944Z,15.29
2022-11-10T22:44:17.089Z,15.34
2022-11-10T22:46:48.053Z,15.22
2022-11-10T22:49:15.800Z,15.45
2022-11-10T22:51:43.957Z,15.33
2022-11-10T22:54:20.898Z,15.63
2022-11-10T22:56:48.189Z,15.57
2022-11-10T22:59:17.730Z,15.50
2022-11-10T23:01:44.554Z,15.52
2022-11-10T23:04:11.956Z,15.45
2022-11-10T23:06:40.271Z,14.97
2022-11-10T23:09:07.253Z,15.45
2022-11-10T23:11:34.246Z,15.42
2022-11-10T23:14:00.693Z,15.07
2022-11-10T23:16:29.604Z,15.43
2022-11-10T23:18:57.382Z,15.27
2022-11-10T23:21:26.832Z,15.47
2022-11-10T23:23:53.791Z,15.27
2022-11-10T23:26:22.526Z,15.27
2022-11-10T23:28:49.290Z,14.79
2022-11-10T23:31:18.564Z,14.58
2022-11-10T23:33:46.871Z,15.03
2022-11-10T23:36:16.396Z,15.20
2022-11-10T23:38:43.112Z,15.25
2022-11-10T23:41:16.754Z,15.45
2022-11-10T23:43:43.551Z,15.10
2022-11-10T23:46:10.957Z,15.07
2022-11-10T23:48:38.135Z,14.87
2022-11-10T23:51:05.458Z,14.77
2022-11-10T23:53:32.791Z,15.39
2022-11-10T23:56:04.889Z,15.14
2022-11-10T23:58:32.536Z,15.00
